createdAt,value
2017-10-04T03:31:13.477Z,11.90
2017-10-04T03:33:41.090Z,12.00
2017-10-04T03:36:08.692Z,11.80
2017-10-04T03:38:36.328Z,11.70
2017-10-04T03:41:04.708Z,11.70
2017-10-04T03:43:33.077Z,11.70
2017-10-04T03:46:01.459Z,11.60
2017-10-04T03:48:29.835Z,11.60
2017-10-04T03:50:58.240Z,11.60
2017-10-04T03:53:25.952Z,11.60
2017-10-04T03:55:53.568Z,11.60
2017-10-04T03:58:21.248Z,11.70
2017-10-04T04:00:48.857Z,11.70
2017-10-04T04:03:16.462Z,11.70
2017-10-04T04:05:44.101Z,11.80
2017-10-04T04:08:11.697Z,11.70
2017-10-04T04:10:39.305Z,11.70
2017-10-04T04:13:07.685Z,11.70
2017-10-04T04:15:36.067Z,11.60
2017-10-04T04:18:04.780Z,11.60
2017-10-04T04:20:32.397Z,11.50
2017-10-04T04:23:00.043Z,11.50
2017-10-04T04:25:27.727Z,11.50
2017-10-04T04:27:56.103Z,11.50
2017-10-04T04:30:24.156Z,11.40
2017-10-04T04:32:51.773Z,11.50
2017-10-04T04:35:19.415Z,11.40
2017-10-04T04:37:53.729Z,11.50
2017-10-04T04:40:22.099Z,11.50
2017-10-04T04:42:50.495Z,11.40
2017-10-04T04:45:18.085Z,11.40
2017-10-04T04:47:45.703Z,11.40
2017-10-04T04:50:14.066Z,11.40
2017-10-04T04:52:41.666Z,11.40
2017-10-04T04:55:09.621Z,11.40
2017-10-04T04:57:37.973Z,11.30
2017-10-04T05:00:05.572Z,11.30
2017-10-04T05:02:34.262Z,11.30
2017-10-04T05:05:01.900Z,11.40
2017-10-04T05:07:30.273Z,11.50
2017-10-04T05:09:59.031Z,11.50
2017-10-04T05:12:26.626Z,11.50
2017-10-04T05:14:55.004Z,11.40
2017-10-04T05:17:23.742Z,11.30
2017-10-04T05:19:51.334Z,11.30
2017-10-04T05:22:19.068Z,11.30
2017-10-04T05:24:47.053Z,11.20
2017-10-04T05:27:14.648Z,11.20
2017-10-04T05:29:43.007Z,11.20
2017-10-04T05:32:10.624Z,11.10
2017-10-04T05:34:38.221Z,11.10
2017-10-04T05:37:06.281Z,11.10
2017-10-04T05:39:33.860Z,11.30
2017-10-04T05:42:01.447Z,11.50
2017-10-04T05:44:29.473Z,11.40
2017-10-04T05:46:57.073Z,11.40
2017-10-04T05:49:24.661Z,11.30
2017-10-04T05:51:52.778Z,11.30
2017-10-04T05:54:20.582Z,11.40
2017-10-04T05:56:48.190Z,11.40
2017-10-04T05:59:15.824Z,11.40
2017-10-04T06:01:43.428Z,11.50
2017-10-04T06:04:11.487Z,11.50
2017-10-04T06:06:39.092Z,11.50
2017-10-04T06:09:06.704Z,11.50
2017-10-04T06:11:34.328Z,11.60
2017-10-04T06:14:01.923Z,11.60
2017-10-04T06:16:29.913Z,11.60
2017-10-04T06:18:57.501Z,11.60
2017-10-04T06:21:25.107Z,11.60
2017-10-04T06:23:52.770Z,11.60
2017-10-04T06:26:20.371Z,11.60
2017-10-04T06:28:48.757Z,11.70
2017-10-04T06:31:17.123Z,11.80
2017-10-04T06:33:45.566Z,11.90
2017-10-04T06:36:13.134Z,11.90
2017-10-04T06:38:41.237Z,12.10
2017-10-04T06:41:09.617Z,12.40
2017-10-04T06:43:37.245Z,12.40
2017-10-04T06:46:04.864Z,12.50
2017-10-04T06:48:32.466Z,12.70
2017-10-04T06:51:14.958Z,12.90
2017-10-04T06:53:42.571Z,13.00
2017-10-04T06:56:10.945Z,12.80
2017-10-04T06:58:39.298Z,12.90
2017-10-04T07:01:07.367Z,12.80
2017-10-04T07:03:34.958Z,12.90
2017-10-04T07:06:03.479Z,13.00
2017-10-04T07:08:31.591Z,13.00
2017-10-04T07:10:59.214Z,13.10
2017-10-04T07:13:26.805Z,13.20
2017-10-04T07:15:54.430Z,13.00
2017-10-04T07:18:22.029Z,13.00
2017-10-04T07:20:49.656Z,13.20
2017-10-04T07:23:17.260Z,13.30
2017-10-04T07:25:44.966Z,13.20
2017-10-04T07:28:12.562Z,13.20
2017-10-04T07:30:40.637Z,13.20
2017-10-04T07:33:08.286Z,13.20
2017-10-04T07:35:35.881Z,13.20
2017-10-04T07:38:03.572Z,13.30
2017-10-04T07:40:31.155Z,13.30
2017-10-04T07:42:58.782Z,13.30
2017-10-04T07:45:27.150Z,13.50
2017-10-04T07:47:55.537Z,13.30
2017-10-04T07:50:23.902Z,13.30
2017-10-04T07:52:52.273Z,13.40
2017-10-04T07:55:19.889Z,13.40
2017-10-04T07:57:47.476Z,13.40
2017-10-04T08:00:15.134Z,13.30
2017-10-04T08:02:42.751Z,13.40
2017-10-04T08:05:10.392Z,13.40
2017-10-04T08:07:38.760Z,13.80
2017-10-04T08:10:06.429Z,13.70
2017-10-04T08:12:34.274Z,13.70
2017-10-04T08:15:01.929Z,13.70
2017-10-04T08:17:29.540Z,14.00
2017-10-04T08:19:57.510Z,14.10
2017-10-04T08:22:25.114Z,14.20
2017-10-04T08:24:52.712Z,14.40
2017-10-04T08:27:21.102Z,14.80
2017-10-04T08:29:48.724Z,14.80
2017-10-04T08:32:16.332Z,14.90
2017-10-04T08:34:43.933Z,14.50
2017-10-04T08:37:11.545Z,14.50
2017-10-04T08:39:39.907Z,14.70
2017-10-04T08:42:08.304Z,14.90
2017-10-04T08:44:35.938Z,14.90
2017-10-04T08:47:15.679Z,15.10
2017-10-04T08:49:43.290Z,15.10
2017-10-04T08:52:10.997Z,14.90
2017-10-04T08:54:38.645Z,14.90
2017-10-04T08:57:06.247Z,14.90
2017-10-04T08:59:34.638Z,15.10
2017-10-04T09:02:02.232Z,15.00
2017-10-04T09:04:41.733Z,15.30
2017-10-04T09:07:10.101Z,15.20
2017-10-04T09:09:38.860Z,15.30
2017-10-04T09:12:06.465Z,15.30
2017-10-04T09:14:34.063Z,15.30
2017-10-04T09:17:01.800Z,15.80
2017-10-04T09:19:29.422Z,15.80
2017-10-04T09:21:57.033Z,15.90
2017-10-04T09:24:24.668Z,16.00
2017-10-04T09:26:53.148Z,16.00
2017-10-04T09:29:20.752Z,16.00
2017-10-04T09:31:48.742Z,16.20
2017-10-04T09:34:16.364Z,16.40
2017-10-04T09:36:43.966Z,16.40
2017-10-04T09:39:11.583Z,16.30
2017-10-04T09:41:39.255Z,15.90
2017-10-04T09:44:06.839Z,16.00
2017-10-04T09:46:34.442Z,16.20
2017-10-04T09:49:02.835Z,16.60
2017-10-04T09:51:30.425Z,16.60
2017-10-04T09:53:58.056Z,16.90
2017-10-04T09:56:25.648Z,16.70
2017-10-04T09:58:53.254Z,16.80
2017-10-04T10:01:21.635Z,16.80
2017-10-04T10:03:50.027Z,16.80
2017-10-04T10:06:17.660Z,16.80
2017-10-04T10:08:45.264Z,16.60
2017-10-04T10:11:12.858Z,16.70
2017-10-04T10:13:40.480Z,17.30
2017-10-04T10:16:08.084Z,17.50
2017-10-04T10:18:35.967Z,17.40
2017-10-04T10:21:03.561Z,17.50
2017-10-04T10:23:31.308Z,17.70
2017-10-04T10:25:59.689Z,17.70
2017-10-04T10:28:28.057Z,18.30
2017-10-04T10:30:56.457Z,19.00
2017-10-04T10:33:24.050Z,19.00
2017-10-04T10:35:51.674Z,18.60
2017-10-04T10:38:20.047Z,17.90
2017-10-04T10:40:47.659Z,17.90
2017-10-04T10:43:15.306Z,18.20
2017-10-04T10:45:42.903Z,18.80
2017-10-04T10:48:10.491Z,19.30
2017-10-04T10:50:38.855Z,19.10
2017-10-04T10:53:07.207Z,19.40
2017-10-04T10:55:34.841Z,19.40
2017-10-04T10:58:02.431Z,19.90
2017-10-04T11:00:30.057Z,20.10
2017-10-04T11:02:57.698Z,19.70
2017-10-04T11:05:25.285Z,19.90
2017-10-04T11:07:52.885Z,19.40
2017-10-04T11:10:20.486Z,18.40
2017-10-04T11:12:48.134Z,17.60
2017-10-04T11:15:16.523Z,19.10
2017-10-04T11:17:44.112Z,19.10
2017-10-04T11:20:11.732Z,20.90
2017-10-04T11:22:40.105Z,22.30
2017-10-04T11:25:08.487Z,24.80
2017-10-04T11:27:36.855Z,26.50
2017-10-04T11:30:05.230Z,25.80
2017-10-04T11:32:33.600Z,24.90
2017-10-04T11:35:01.204Z,24.90
2017-10-04T11:37:28.811Z,23.60
2017-10-04T11:39:56.410Z,23.90
2017-10-04T11:42:24.036Z,24.60
2017-10-04T11:44:51.634Z,24.30
2017-10-04T11:47:19.240Z,23.00
2017-10-04T11:49:46.900Z,23.40
2017-10-04T11:52:14.529Z,22.70
2017-10-04T11:54:42.133Z,22.50
2017-10-04T11:57:10.529Z,24.00
2017-10-04T11:59:38.160Z,24.00
2017-10-04T12:02:05.776Z,24.70
2017-10-04T12:04:33.411Z,24.50
2017-10-04T12:07:01.785Z,22.40
2017-10-04T12:09:29.842Z,22.40
2017-10-04T12:11:57.449Z,21.80
2017-10-04T12:14:25.049Z,20.70
2017-10-04T12:16:52.659Z,20.20
2017-10-04T12:19:21.025Z,19.80
2017-10-04T12:21:48.977Z,19.80
2017-10-04T12:24:16.583Z,19.10
2017-10-04T12:26:44.180Z,18.80
2017-10-04T12:29:12.160Z,18.80
2017-10-04T12:31:39.793Z,18.60
2017-10-04T12:34:07.385Z,19.00
2017-10-04T12:36:35.774Z,18.90
2017-10-04T12:39:03.378Z,18.90
2017-10-04T12:41:31.426Z,18.90
2017-10-04T12:43:59.809Z,20.50
2017-10-04T12:46:28.186Z,22.40
2017-10-04T12:48:56.573Z,23.80
2017-10-04T12:51:24.168Z,23.80
2017-10-04T12:53:52.155Z,25.20
2017-10-04T12:56:19.754Z,26.80
2017-10-04T12:58:48.146Z,23.30
2017-10-04T13:01:15.772Z,23.30
2017-10-04T13:03:43.375Z,21.70
2017-10-04T13:06:11.388Z,20.80
2017-10-04T13:08:38.994Z,20.60
2017-10-04T13:11:07.444Z,20.60
2017-10-04T13:13:35.507Z,20.60
2017-10-04T13:16:03.106Z,21.10
2017-10-04T13:18:31.484Z,20.60
2017-10-04T13:21:00.325Z,19.60
2017-10-04T13:23:27.925Z,19.60
2017-10-04T13:25:56.291Z,21.00
2017-10-04T13:28:25.024Z,22.50
2017-10-04T13:30:52.611Z,22.50
2017-10-04T13:33:20.214Z,23.80
2017-10-04T13:35:48.597Z,20.80
2017-10-04T13:38:16.955Z,19.90
2017-10-04T13:40:44.907Z,19.90
2017-10-04T13:43:12.515Z,19.10
2017-10-04T13:45:40.108Z,19.70
2017-10-04T13:48:07.776Z,20.30
2017-10-04T13:50:37.150Z,20.50
2017-10-04T13:53:05.463Z,20.30
2017-10-04T13:55:33.100Z,19.90
2017-10-04T13:58:00.702Z,19.60
2017-10-04T14:00:28.340Z,19.50
2017-10-04T14:02:55.942Z,19.80
2017-10-04T14:05:24.304Z,19.30
2017-10-04T14:07:51.896Z,19.20
2017-10-04T14:10:19.514Z,19.30
2017-10-04T14:12:48.305Z,18.50
2017-10-04T14:15:15.925Z,18.50
2017-10-04T14:17:43.532Z,18.20
2017-10-04T14:20:11.265Z,18.00
2017-10-04T14:22:39.632Z,18.30
2017-10-04T14:25:07.641Z,18.30
2017-10-04T14:27:35.247Z,19.70
2017-10-04T14:30:02.845Z,22.40
2017-10-04T14:32:30.458Z,24.20
2017-10-04T14:34:58.071Z,24.00
2017-10-04T14:37:26.158Z,21.50
2017-10-04T14:39:53.751Z,20.20
2017-10-04T14:42:21.357Z,19.30
2017-10-04T14:44:49.017Z,18.70
2017-10-04T14:47:16.629Z,18.70
2017-10-04T14:49:45.514Z,18.00
2017-10-04T14:52:14.230Z,17.60
2017-10-04T14:54:41.853Z,17.60
2017-10-04T14:57:10.250Z,17.40
2017-10-04T14:59:37.895Z,17.40
2017-10-04T15:02:06.662Z,17.50
2017-10-04T15:04:34.321Z,17.40
2017-10-04T15:07:03.434Z,17.40
2017-10-04T15:09:31.818Z,17.00
2017-10-04T15:12:00.185Z,17.10
2017-10-04T15:14:28.240Z,17.10
2017-10-04T15:16:56.616Z,17.20
2017-10-04T15:19:24.208Z,17.20
2017-10-04T15:21:52.658Z,17.00
2017-10-04T15:24:20.257Z,17.00
2017-10-04T15:26:48.236Z,17.10
2017-10-04T15:29:15.857Z,17.10
2017-10-04T15:31:43.500Z,17.00
2017-10-04T15:34:11.152Z,16.70
2017-10-04T15:36:38.751Z,16.30
2017-10-04T15:39:06.808Z,16.00
2017-10-04T15:41:34.423Z,16.00
2017-10-04T15:44:02.036Z,16.00
2017-10-04T15:46:29.673Z,15.80
2017-10-04T15:48:57.270Z,15.90
2017-10-04T15:51:26.020Z,15.70
2017-10-04T15:53:53.644Z,15.70
2017-10-04T15:56:21.252Z,15.90
2017-10-04T15:58:48.866Z,15.90
2017-10-04T16:01:16.496Z,15.70
2017-10-04T16:03:44.554Z,15.70
2017-10-04T16:06:12.184Z,15.70
2017-10-04T16:08:39.781Z,15.80
2017-10-04T16:11:07.390Z,15.80
2017-10-04T16:13:35.054Z,15.70
2017-10-04T16:16:03.066Z,15.90
2017-10-04T16:18:30.690Z,15.90
2017-10-04T16:20:58.299Z,15.90
2017-10-04T16:23:27.917Z,15.90
2017-10-04T16:25:56.298Z,15.90
2017-10-04T16:28:23.951Z,15.90
2017-10-04T16:30:52.720Z,15.40
2017-10-04T16:33:20.324Z,15.40
2017-10-04T16:38:21.885Z,15.40
2017-10-04T16:40:50.249Z,15.40
2017-10-04T16:43:19.017Z,15.40
2017-10-04T16:45:46.618Z,15.40
2017-10-04T16:48:14.212Z,15.50
2017-10-04T16:50:42.339Z,15.50
2017-10-04T16:53:10.701Z,15.10
2017-10-04T16:55:38.288Z,15.10
2017-10-04T16:58:06.323Z,15.20
2017-10-04T17:00:33.916Z,15.20
2017-10-04T17:03:02.288Z,15.50
2017-10-04T17:05:31.546Z,15.40
2017-10-04T17:07:59.201Z,15.50
2017-10-04T17:10:26.885Z,15.40
2017-10-04T17:12:54.615Z,15.20
2017-10-04T17:15:22.215Z,15.20
2017-10-04T17:17:50.966Z,15.00
2017-10-04T17:20:18.568Z,15.00
2017-10-04T17:22:46.951Z,14.70
2017-10-04T17:25:15.684Z,14.50
2017-10-04T17:27:43.371Z,14.40
2017-10-04T17:30:10.999Z,14.30
2017-10-04T17:32:38.660Z,14.40
2017-10-04T17:35:06.273Z,14.60
2017-10-04T17:37:35.232Z,14.70
2017-10-04T17:40:02.842Z,14.80
2017-10-04T17:42:31.535Z,14.70
2017-10-04T17:44:59.925Z,14.50
2017-10-04T17:47:30.436Z,14.50
2017-10-04T17:49:59.194Z,14.20
2017-10-04T17:52:26.828Z,14.20
2017-10-04T17:54:54.435Z,13.90
2017-10-04T17:57:22.910Z,14.00
2017-10-04T17:59:50.517Z,13.90
2017-10-04T18:02:18.153Z,14.00
2017-10-04T18:04:46.562Z,14.30
2017-10-04T18:07:15.127Z,14.30
2017-10-04T18:09:43.170Z,14.50
2017-10-04T18:12:11.583Z,14.70
2017-10-04T18:14:39.193Z,14.60
2017-10-04T18:17:06.970Z,14.70
2017-10-04T18:19:34.575Z,14.80
2017-10-04T18:22:02.592Z,14.80
2017-10-04T18:24:30.212Z,14.90
2017-10-04T18:26:57.804Z,14.80
2017-10-04T18:29:25.559Z,14.60
2017-10-04T18:31:53.192Z,14.50
2017-10-04T18:34:22.174Z,14.50
2017-10-04T18:36:49.803Z,14.20
2017-10-04T18:39:17.431Z,14.20
2017-10-04T18:41:45.421Z,14.20
2017-10-04T18:44:13.057Z,14.10
2017-10-04T18:46:41.188Z,14.10
2017-10-04T18:49:09.026Z,14.10
2017-10-04T18:51:36.641Z,14.20
2017-10-04T18:54:04.687Z,14.20
2017-10-04T18:56:33.174Z,14.10
2017-10-04T18:59:01.514Z,14.00
2017-10-04T19:01:29.408Z,14.00
2017-10-04T19:03:58.033Z,14.00
2017-10-04T19:06:26.765Z,14.00
2017-10-04T19:08:54.676Z,14.10
2017-10-04T19:11:23.094Z,14.10
2017-10-04T19:13:51.451Z,14.30
2017-10-04T19:16:19.114Z,14.30
2017-10-04T19:18:46.720Z,14.30
2017-10-04T19:21:15.264Z,13.90
2017-10-04T19:23:42.894Z,13.90
2017-10-04T19:26:11.934Z,13.60
2017-10-04T19:28:39.553Z,13.50
2017-10-04T19:31:07.783Z,13.50
2017-10-04T19:33:36.160Z,13.60
2017-10-04T19:36:04.589Z,13.50
2017-10-04T19:38:32.230Z,13.40
2017-10-04T19:41:01.136Z,13.70
2017-10-04T19:43:28.756Z,13.90
2017-10-04T19:45:57.294Z,13.90
2017-10-04T19:48:24.951Z,13.90
2017-10-04T19:50:52.549Z,13.90
2017-10-04T19:53:20.585Z,13.90
2017-10-04T19:55:48.221Z,13.90
2017-10-04T19:58:16.149Z,13.80
2017-10-04T20:00:44.585Z,13.70
2017-10-04T20:03:12.945Z,13.50
2017-10-04T20:05:40.572Z,13.50
2017-10-04T20:08:08.215Z,13.70
2017-10-04T20:10:35.828Z,13.80
2017-10-04T20:13:04.081Z,13.80
2017-10-04T20:15:31.759Z,13.70
2017-10-04T20:17:59.386Z,13.80
2017-10-04T20:20:27.100Z,14.00
2017-10-04T20:22:54.720Z,14.10
2017-10-04T20:25:22.893Z,13.90
2017-10-04T20:27:50.505Z,13.90
2017-10-04T20:30:18.131Z,13.80
2017-10-04T20:32:45.765Z,13.70
2017-10-04T20:35:13.370Z,13.80
2017-10-04T20:37:41.403Z,13.80
2017-10-04T20:40:08.993Z,13.80
2017-10-04T20:42:37.364Z,13.60
2017-10-04T20:45:06.132Z,13.60
2017-10-04T20:47:33.968Z,13.60
2017-10-04T20:50:01.573Z,13.60
2017-10-04T20:52:29.954Z,13.60
2017-10-04T20:54:58.349Z,13.60
2017-10-04T20:57:27.067Z,13.80
2017-10-04T20:59:54.744Z,13.80
2017-10-04T21:02:22.338Z,13.80
2017-10-04T21:04:51.285Z,13.50
2017-10-04T21:07:18.877Z,13.50
2017-10-04T21:09:46.473Z,13.60
2017-10-04T21:12:14.118Z,13.40
2017-10-04T21:14:42.488Z,13.50
2017-10-04T21:17:11.251Z,13.50
2017-10-04T21:19:38.855Z,13.50
2017-10-04T21:22:06.441Z,13.60
2017-10-04T21:24:34.132Z,13.70
2017-10-04T21:27:01.738Z,13.70
2017-10-04T21:29:29.758Z,13.70
2017-10-04T21:31:57.373Z,13.70
2017-10-04T21:34:25.021Z,13.80
2017-10-04T21:36:53.536Z,13.70
2017-10-04T21:39:21.142Z,13.70
2017-10-04T21:41:49.123Z,13.60
2017-10-04T21:44:17.493Z,13.80
2017-10-04T21:46:45.087Z,13.80
2017-10-04T21:49:13.069Z,13.80
2017-10-04T21:51:40.809Z,13.70
2017-10-04T21:54:09.177Z,13.60
2017-10-04T21:56:38.139Z,13.50
2017-10-04T21:59:05.740Z,13.50
2017-10-04T22:01:34.105Z,13.50
2017-10-04T22:04:02.498Z,13.50
2017-10-04T22:06:30.871Z,13.60
2017-10-04T22:08:59.628Z,13.50
2017-10-04T22:11:27.218Z,13.40
2017-10-04T22:13:55.596Z,13.40
2017-10-04T22:16:24.350Z,13.30
2017-10-04T22:18:51.958Z,13.30
2017-10-04T22:21:19.562Z,13.40
2017-10-04T22:23:47.536Z,13.40
2017-10-04T22:26:15.170Z,13.40
2017-10-04T22:28:42.767Z,13.40
